Arriola, Colorado
Current Conditions -  °F | °C
As of 12:53 PM on Saturday 25 Oct 2014 (Local Time) from KCEZ Reporting Station
Clear Clear  
Wind Chill: 73°   Ceiling: Unl
Heat Index: 73°   Visibility: 10mi
Dew Point: 33°   Wind: 14mph
Humidity: 23%   Direction: 220°SW
Pressure: 30.29"   Gusts: NA
Location:  37.3484°N, 108.734°W
Report Text: KCEZ 251853Z AUTO 22012KT 10SM CLR 23/01 A3029 RMK AO2 SLP211 T02280006
Loading
Personal Weather Stations






























Interactive Weather Map
Tropical Storm Tracking
New forecast layout! Learn more

10-Day Weather Forecast

Advertisements
Track Severe Weather on mobile